Nearby METAR Reports

Sorted by Distance from Carson Valley Weather Station - Minden, Nevada

 

KMEV - Minden, Nevada, USA
Distance from station: SSW 3mi, 5km
Updated: Sat, 28-Sep-2019 9:35am PDT
NOT Current
Clear
Clear
 Wind from S
Wind: S 13 mph , 20 km/h, Gust: 24 mph , 39 km/h
Temperature: 63°F , 17°C
Dew Point: 23°F , -5°C
Humidity: 22%
Barometer: 29.66 inHg , 1004.4 hPa
Clouds: Clear
Visibility: 10 miles , 16 km
2019/09/28 16:35 KMEV 281635Z AUTO 17011G21KT 10SM CLR 17/M05 A2966 RMK AO2
KCXP - Carson City, Nevada, USA
Distance from station: N 10mi, 16km
Updated: Thu, 21-Nov-2019 3:35pm PST
Mostly cloudy
Mostly cloudy
 Wind from E
Wind: E 8 mph , 13 km/h
Temperature: 46°F , 8°C
Wind Chill: 42°F , 6°C
Dew Point: 32°F , 0°C
Humidity: 57%
Barometer: 29.91 inHg , 1012.9 hPa
Clouds: Mostly cloudy
Visibility: 10 miles , 16 km
Cloud details: Mostly cloudy 4000 ft
2019/11/21 23:35 KCXP 212335Z AUTO 08007KT 10SM BKN040 08/M00 A2991 RMK AO2
 
KTVL - South Lake Tahoe, California, USA
Distance from station: WSW 18mi, 29km
Updated: Thu, 21-Nov-2019 2:53pm PST
Clear
Clear
 Wind from calm
Wind: Calm
Temperature: 45°F , 7°C
Dew Point: 28°F , -2°C
Humidity: 53%
Barometer: 29.89 inHg , 1012.2 hPa
Clouds: Clear
Visibility: 10 miles , 16 km
2019/11/21 22:53 KTVL 212253Z AUTO 00000KT 10SM CLR 07/M02 A2989 RMK AO2 SLP104 T00721017
KTRK - Truckee Tahoe, California, USA
Distance from station: NW 29mi, 46km
Updated: Thu, 21-Nov-2019 3:45pm PST
Partly cloudy
Partly cloudy
 Wind from N
Wind: N 5 mph , 7 km/h
Temperature: 43°F , 6°C
Wind Chill: 40°F , 4°C
Dew Point: 30°F , -1°C
Humidity: 61%
Barometer: 29.92 inHg , 1013.2 hPa
Clouds: Partly cloudy
Visibility: 10 miles , 16 km
Cloud details: Partly cloudy 6500 ft
2019/11/21 23:45 KTRK 212345Z 01004KT 10SM SCT065 06/M01 A2992
 
KRNO - Reno, Nevada, USA
Distance from station: N 32mi, 51km
Updated: Thu, 21-Nov-2019 2:55pm PST
Mostly cloudy
Mostly cloudy
 Wind from calm
Wind: Calm
Temperature: 48°F , 9°C
Dew Point: 28°F , -2°C
Humidity: 46%
Barometer: 29.92 inHg , 1013.2 hPa
Clouds: Mostly cloudy
Visibility: 10 miles , 16 km
Cloud details: Partly cloudy 4000 ft
Mostly cloudy 5500 ft
2019/11/21 22:55 KRNO 212255Z 00000KT 10SM SCT040 BKN055 09/M02 A2992 RMK AO2 SLP120 MTN TOPS OBSCD DSNT SW T00891017
KRTS - Reno/Stead, Nevada, USA
Distance from station: NNW 44mi, 71km
Updated: Thu, 21-Nov-2019 3:35pm PST
Clear
Clear
 Wind from ESE
Wind: ESE 5 mph , 7 km/h
Temperature: 45°F , 7°C
Wind Chill: 42°F , 6°C
Dew Point: 28°F , -2°C
Humidity: 53%
Barometer: 29.93 inHg , 1013.5 hPa
Clouds: Clear
Visibility: 10 miles , 16 km
2019/11/21 23:35 KRTS 212335Z AUTO 12004KT 10SM CLR 07/M02 A2993 RMK AO2
 
KBAN - Bridgeport(Mcmwt, California, USA
Distance from station: SSE 49mi, 79km
Updated: Thu, 21-Nov-2019 2:52pm PST
Clear
Clear
 Wind from varies
Wind: varies 6 mph , 9 km/h
Temperature: 46°F , 8°C
Wind Chill: 43°F , 6°C
Dew Point: 27°F , -3°C
Humidity: 46%
Barometer: 29.85 inHg , 1010.8 hPa
Clouds: Clear
Visibility: 10 miles , 16 km
2019/11/21 22:52 KBAN 212252Z AUTO VRB05KT 10SM CLR 08/M03 A2985 RMK AO2 SLP088 T00781033 $
KBLU - Emigrant Gap, California, USA
Distance from station: WNW 55mi, 89km
Updated: Thu, 21-Nov-2019 3:45pm PST
Overcast
Overcast
 Wind from WSW
Wind: WSW 7 mph , 11 km/h
Temperature: 43°F , 6°C
Wind Chill: 39°F , 4°C
Dew Point: 36°F , 2°C
Humidity: 76%
Barometer: 29.95 inHg , 1014.2 hPa
Clouds: Overcast
Visibility: 10 miles , 16 km
Cloud details: Mostly cloudy 1800 ft
Overcast 3800 ft
2019/11/21 23:45 KBLU 212345Z AUTO 25006KT 10SM BKN018 OVC038 06/02 A2995 RMK AO2 T00560022
 
KPVF - Placerville, California, USA
Distance from station: WSW 60mi, 96km
Updated: Thu, 21-Nov-2019 3:35pm PST
Mostly cloudy
Mostly cloudy
 Wind from W
Wind: W 6 mph , 9 km/h
Temperature: 54°F , 12°C
Dew Point: 39°F , 4°C
Humidity: 58%
Barometer: 29.94 inHg , 1013.9 hPa
Clouds: Mostly cloudy
Visibility: 10 miles , 16 km
Cloud details: Mostly cloudy 4400 ft
2019/11/21 23:35 KPVF 212335Z AUTO 27005KT 10SM BKN044 12/04 A2994 RMK AO1
KNFL - Fallon Nas, Nevada, USA
Distance from station: ENE 61mi, 97km
Updated: Thu, 21-Nov-2019 2:56pm PST
Mostly cloudy
Mostly cloudy
 Wind from NNE
Wind: NNE 6 mph , 9 km/h
Temperature: 48°F , 9°C
Wind Chill: 45°F , 7°C
Dew Point: 30°F , -1°C
Humidity: 50%
Barometer: 29.92 inHg , 1013.2 hPa
Clouds: Mostly cloudy
Visibility: 10 miles , 16 km
Cloud details: Few Clouds 5000 ft
Mostly cloudy 8500 ft
Mostly cloudy 12000 ft
Mostly cloudy 18000 ft
2019/11/21 22:56 KNFL 212256Z 02005KT 10SM FEW050 BKN085 BKN120 BKN180 09/M01 A2992 RMK AO2 SLP106 T00891006
 
KHTH - Hawthorne, Nevada, USA
Distance from station: ESE 68mi, 109km
Updated: Thu, 21-Nov-2019 3:35pm PST
Overcast
Overcast
 Wind from NNW
Wind: NNW 6 mph , 9 km/h
Temperature: 45°F , 7°C
Wind Chill: 42°F , 6°C
Dew Point: 34°F , 1°C
Humidity: 66%
Barometer: 29.94 inHg , 1013.9 hPa
Clouds: Overcast
Visibility: 10 miles , 16 km
Cloud details: Overcast 3300 ft
2019/11/21 23:35 KHTH 212335Z AUTO 34005KT 10SM OVC033 07/01 A2994 RMK A01
KGOO - Grass Valley, California, USA
Distance from station: W 70mi, 112km
Updated: Thu, 21-Nov-2019 3:35pm PST
Clear
Clear
 Wind from varies
Wind: varies 5 mph , 7 km/h
Temperature: 52°F , 11°C
Dew Point: 39°F , 4°C
Humidity: 62%
Barometer: 29.92 inHg , 1013.2 hPa
Clouds: Clear
Visibility: 10 miles , 16 km
2019/11/21 23:35 KGOO 212335Z AUTO VRB04KT 10SM CLR 11/04 A2992 RMK A01
 
KAUN - Auburn Muni, California, USA
Distance from station: W 73mi, 118km
Updated: Thu, 21-Nov-2019 3:35pm PST
Clear
Clear
 Wind from calm
Wind: Calm
Temperature: 59°F , 15°C
Dew Point: 41°F , 5°C
Humidity: 51%
Barometer: 29.92 inHg , 1013.2 hPa
Clouds: Clear
Visibility: 10 miles , 16 km
2019/11/21 23:35 KAUN 212335Z AUTO 00000KT 10SM CLR 15/05 A2992 RMK A01
KO22 - Columbia, California, USA
Distance from station: SSW 79mi, 127km
Updated: Thu, 21-Nov-2019 3:55pm PST
Partly cloudy
Partly cloudy
 Wind from S
Wind: S 5 mph , 7 km/h
Temperature: 59°F , 15°C
Dew Point: 41°F , 5°C
Humidity: 51%
Barometer: 29.92 inHg , 1013.2 hPa
Clouds: Partly cloudy
Visibility: 10 miles , 16 km
Cloud details: Partly cloudy 4000 ft
2019/11/21 23:55 KO22 212355Z AUTO 18004KT 10SM SCT040 15/05 A2992 RMK A01
 
KLHM - Lincoln, California, USA
Distance from station: W 88mi, 141km
Updated: Thu, 21-Nov-2019 3:35pm PST
Clear
Clear
 Wind from calm
Wind: Calm
Temperature: 63°F , 17°C
Dew Point: 43°F , 6°C
Humidity: 49%
Barometer: 29.90 inHg , 1012.5 hPa
Clouds: Clear
Visibility: 10 miles , 16 km
2019/11/21 23:35 KLHM 212335Z AUTO 00000KT 10SM CLR 17/06 A2990 RMK AO1
KBAB - Beale Afb/Marysv, California, USA
Distance from station: W 91mi, 147km
Updated: Thu, 21-Nov-2019 2:58pm PST
Clear
Clear
 Wind from SSW
Wind: SSW 3 mph , 6 km/h
Temperature: 64°F , 18°C
Dew Point: 43°F , 6°C
Humidity: 46%
Barometer: 29.88 inHg , 1011.9 hPa
Clouds: Clear
Visibility: 10 miles , 16 km
2019/11/21 22:58 KBAB 212258Z AUTO 21003KT 10SM CLR 18/06 A2988 RMK AO2 SLP121 T01790064 $
 
KMHR - Mather Field, California, USA
Distance from station: WSW 91mi, 147km
Updated: Thu, 21-Nov-2019 2:45pm PST
NOT Current
Clear
Clear
 Wind from WSW
Wind: WSW 5 mph , 7 km/h
Temperature: 64°F , 18°C
Dew Point: 43°F , 6°C
Humidity: 46%
Barometer: 29.88 inHg , 1011.9 hPa
Clouds: Clear
Visibility: 10 miles , 16 km
2019/11/21 22:45 KMHR 212245Z 25004KT 10SM SKC 18/06 A2988
KLOL - Lovelock, Nevada, USA
Distance from station: NE 94mi, 151km
Updated: Thu, 21-Nov-2019 2:53pm PST
Clear
Clear
 Wind from W
Wind: W 3 mph , 6 km/h
Temperature: 48°F , 9°C
Dew Point: 30°F , -1°C
Humidity: 50%
Barometer: 29.92 inHg , 1013.2 hPa
Clouds: Clear
Visibility: 10 miles , 16 km
2019/11/21 22:53 KLOL 212253Z AUTO 28003KT 10SM CLR 09/M01 A2992 RMK AO2 SLP131 T00891011
 
KMCC - Mcclellan Afb, California, USA
Distance from station: WSW 94mi, 151km
Updated: Thu, 21-Nov-2019 3:35pm PST
Clear
Clear
 Wind from calm
Wind: Calm
Temperature: 64°F , 18°C
Dew Point: 43°F , 6°C
Humidity: 46%
Barometer: 29.92 inHg , 1013.2 hPa
Clouds: Clear
Visibility: 10 miles , 16 km
2019/11/21 23:35 KMCC 212335Z AUTO 00000KT 10SM CLR 18/06 A2992 RMK AO2
KMYV - Marysville, California, USA
Distance from station: W 99mi, 159km
Updated: Thu, 21-Nov-2019 2:53pm PST
Clear
Clear
 Wind from SSW
Wind: SSW 7 mph , 11 km/h
Temperature: 64°F , 18°C
Dew Point: 43°F , 6°C
Humidity: 46%
Barometer: 29.89 inHg , 1012.2 hPa
Clouds: Clear
Visibility: 10 miles , 16 km
2019/11/21 22:53 KMYV 212253Z AUTO 20006KT 10SM CLR 18/06 A2989 RMK AO2 SLP126 T01780061
 
KSVE - Susanville Muni, California, USA
Distance from station: NNW 102mi, 164km
Updated: Thu, 21-Nov-2019 3:35pm PST
Clear
Clear
 Wind from ESE
Wind: ESE 5 mph , 7 km/h
Temperature: 50°F , 10°C
Wind Chill: 48°F , 9°C
Dew Point: 27°F , -3°C
Humidity: 40%
Barometer: 29.93 inHg , 1013.5 hPa
Clouds: Clear
Visibility: 10 miles , 16 km
2019/11/21 23:35 KSVE 212335Z AUTO 11004KT 10SM CLR 10/M03 A2993 RMK AO2
KSAC - Sacramento, California, USA
Distance from station: WSW 103mi, 165km
Updated: Thu, 21-Nov-2019 2:53pm PST
Clear
Clear
 Wind from SSW
Wind: SSW 6 mph , 9 km/h
Temperature: 64°F , 18°C
Dew Point: 43°F , 6°C
Humidity: 46%
Barometer: 29.89 inHg , 1012.2 hPa
Clouds: Clear
Visibility: 10 miles , 16 km
2019/11/21 22:53 KSAC 212253Z 20005KT 10SM CLR 18/06 A2989 RMK AO2 SLP121 T01830061
 
KSMF - Sacramento/Metro, California, USA
Distance from station: WSW 104mi, 167km
Updated: Thu, 21-Nov-2019 2:53pm PST
Clear
Clear
 Wind from S
Wind: S 7 mph , 11 km/h
Temperature: 64°F , 18°C
Dew Point: 45°F , 7°C
Humidity: 49%
Barometer: 29.89 inHg , 1012.2 hPa
Clouds: Clear
Visibility: 10 miles , 16 km
2019/11/21 22:53 KSMF 212253Z 19006KT 10SM CLR 18/07 A2989 RMK AO2 SLP120 T01780067
KOVE - Oroville, California, USA
Distance from station: WNW 106mi, 171km
Updated: Thu, 21-Nov-2019 2:53pm PST
Clear
Clear
 Wind from WSW
Wind: WSW 3 mph , 6 km/h
Temperature: 63°F , 17°C
Dew Point: 45°F , 7°C
Humidity: 52%
Barometer: 29.90 inHg , 1012.5 hPa
Clouds: Clear
Visibility: 10 miles , 16 km
2019/11/21 22:53 KOVE 212253Z AUTO 24003KT 10SM CLR 17/07 A2990 RMK AO2 SLP128 T01720067
 
KMMH - Mammoth/June Lak, California, USA
Distance from station: SSE 110mi, 177km
Updated: Thu, 21-Nov-2019 3:35pm PST
Clear
Clear
 Wind from SSE
Wind: SSE 6 mph , 9 km/h
Temperature: 41°F , 5°C
Wind Chill: 37°F , 3°C
Dew Point: 25°F , -4°C
Humidity: 53%
Barometer: 29.91 inHg , 1012.9 hPa
Clouds: Clear
Visibility: 10 miles , 16 km
2019/11/21 23:35 KMMH 212335Z AUTO 15005KT 10SM CLR 05/M04 A2991 RMK AO2 T00471039
KSCK - Stockton, California, USA
Distance from station: SW 114mi, 183km
Updated: Thu, 21-Nov-2019 2:55pm PST
Clear
Clear
 Wind from SW
Wind: SW 6 mph , 9 km/h
Temperature: 64°F , 18°C
Dew Point: 45°F , 7°C
Humidity: 49%
Barometer: 29.89 inHg , 1012.2 hPa
Clouds: Clear
Visibility: 10 miles , 16 km
2019/11/21 22:55 KSCK 212255Z 23005KT 10SM CLR 18/07 A2989 RMK AO2 SLP119 T01830067
 
KEDU - Davis, California, USA
Distance from station: WSW 116mi, 187km
Updated: Thu, 21-Nov-2019 3:35pm PST
Clear
Clear
 Wind from calm
Wind: Calm
Temperature: 63°F , 17°C
Dew Point: 43°F , 6°C
Humidity: 49%
Barometer: 29.90 inHg , 1012.5 hPa
Clouds: Clear
Visibility: 10 miles , 16 km
2019/11/21 23:35 KEDU 212335Z AUTO 00000KT 10SM CLR 17/06 A2990 RMK AO1
KMOD - Modesto, California, USA
Distance from station: SW 119mi, 191km
Updated: Thu, 21-Nov-2019 2:53pm PST
Clear
Clear
 Wind from calm
Wind: Calm
Temperature: 64°F , 18°C
Dew Point: 39°F , 4°C
Humidity: 40%
Barometer: 29.88 inHg , 1011.9 hPa
Clouds: Clear
Visibility: 10 miles , 16 km
2019/11/21 22:53 KMOD 212253Z 00000KT 10SM CLR 18/04 A2988 RMK AO2 SLP119 T01780039
 
KMER - Merced/Castle Af, California, USA
Distance from station: SSW 123mi, 198km
Updated: Thu, 21-Nov-2019 3:45pm PST
Clear
Clear
 Wind from calm
Wind: Calm
Temperature: 68°F , 20°C
Dew Point: 37°F , 3°C
Humidity: 33%
Barometer: 29.90 inHg , 1012.5 hPa
Clouds: Clear
Visibility: 10 miles , 16 km
2019/11/21 23:45 KMER 212345Z 00000KT 10SM SKC 20/03 A2990
KCIC - Chico Municipal, California, USA
Distance from station: WNW 124mi, 199km
Updated: Thu, 21-Nov-2019 3:47pm PST
Partly cloudy
Partly cloudy
 Wind from SSE
Wind: SSE 7 mph , 11 km/h
Temperature: 63°F , 17°C
Dew Point: 39°F , 4°C
Humidity: 42%
Barometer: 29.92 inHg , 1013.2 hPa
Clouds: Partly cloudy
Visibility: 25 miles , 40 km
Cloud details: Partly cloudy 6000 ft
2019/11/21 23:47 KCIC 212347Z 15006KT 25SM SCT060 17/04 A2992
 
KMCE - Merced, California, USA
Distance from station: SSW 128mi, 207km
Updated: Thu, 21-Nov-2019 2:53pm PST
Clear
Clear
 Wind from calm
Wind: Calm
Temperature: 64°F , 18°C
Dew Point: 39°F , 4°C
Humidity: 40%
Barometer: 29.89 inHg , 1012.2 hPa
Clouds: Clear
Visibility: 10 miles , 16 km
2019/11/21 22:53 KMCE 212253Z AUTO 00000KT 10SM CLR 18/04 A2989 RMK AO2 SLP121 T01780039
KVCB - Vacaville, California, USA
Distance from station: WSW 128mi, 207km
Updated: Thu, 21-Nov-2019 2:53pm PST
Clear
Clear
 Wind from calm
Wind: Calm
Temperature: 64°F , 18°C
Dew Point: 45°F , 7°C
Humidity: 49%
Barometer: 29.90 inHg , 1012.5 hPa
Clouds: Clear
Visibility: 10 miles , 16 km
2019/11/21 22:53 KVCB 212253Z AUTO 00000KT 10SM CLR 18/07 A2990 RMK AO2 SLP125 T01830067 $
 
KSUU - Travis Afb/Fairf, California, USA
Distance from station: WSW 130mi, 209km
Updated: Thu, 21-Nov-2019 2:58pm PST
Clear
Clear
 Wind from calm
Wind: Calm
Temperature: 70°F , 21°C
Dew Point: 43°F , 6°C
Humidity: 38%
Barometer: 29.89 inHg , 1012.2 hPa
Clouds: Clear
Visibility: 10 miles , 16 km
2019/11/21 22:58 KSUU 212258Z 00000KT 10SM CLR 21/06 A2989 RMK AO2A SLP128 T02080063 $
KBIH - Bishop, California, USA
Distance from station: SE 137mi, 221km
Updated: Thu, 21-Nov-2019 2:56pm PST
Clear
Clear
 Wind from WSW
Wind: WSW 7 mph , 11 km/h
Temperature: 55°F , 13°C
Dew Point: 28°F , -2°C
Humidity: 36%
Barometer: 29.86 inHg , 1011.2 hPa
Clouds: Clear
Visibility: 10 miles , 16 km
2019/11/21 22:56 KBIH 212256Z AUTO 24006KT 10SM CLR 13/M02 A2986 RMK AO2 SLP097 T01281017
 
KMAE - Madera, California, USA
Distance from station: S 144mi, 231km
Updated: Thu, 21-Nov-2019 2:53pm PST
Clear
Clear
 Wind from SW
Wind: SW 3 mph , 6 km/h
Temperature: 66°F , 19°C
Dew Point: 43°F , 6°C
Humidity: 43%
Barometer: 29.90 inHg , 1012.5 hPa
Clouds: Clear
Visibility: 10 miles , 16 km
2019/11/21 22:53 KMAE 212253Z AUTO 23003KT 10SM CLR 19/06 A2990 RMK AO2 SLP124 T01890056
KCCR - Concord, California, USA
Distance from station: WSW 145mi, 233km
Updated: Thu, 21-Nov-2019 2:53pm PST
Clear
Clear
 Wind from N
Wind: N 6 mph , 9 km/h
Temperature: 64°F , 18°C
Dew Point: 45°F , 7°C
Humidity: 49%
Barometer: 29.89 inHg , 1012.2 hPa
Clouds: Clear
Visibility: 10 miles , 16 km
2019/11/21 22:53 KCCR 212253Z 01005KT 10SM CLR 18/07 A2989 RMK AO2 SLP107 T01830067
 
KLVK - Livermore, California, USA
Distance from station: SW 146mi, 236km
Updated: Thu, 21-Nov-2019 2:53pm PST
Clear
Clear
 Wind from NW
Wind: NW 3 mph , 6 km/h
Temperature: 64°F , 18°C
Dew Point: 37°F , 3°C
Humidity: 37%
Barometer: 29.88 inHg , 1011.9 hPa
Clouds: Clear
Visibility: 10 miles , 16 km
2019/11/21 22:53 KLVK 212253Z 31003KT 10SM CLR 18/03 A2988 RMK AO2 SLP115 T01830033
KAPC - Napa, California, USA
Distance from station: WSW 150mi, 241km
Updated: Thu, 21-Nov-2019 2:54pm PST
Clear
Clear
 Wind from SSW
Wind: SSW 9 mph , 15 km/h
Temperature: 63°F , 17°C
Dew Point: 45°F , 7°C
Humidity: 52%
Barometer: 29.89 inHg , 1012.2 hPa
Clouds: Clear
Visibility: 10 miles , 16 km
2019/11/21 22:54 KAPC 212254Z 20008KT 10SM CLR 17/07 A2989 RMK AO2 SLP111 T01720072
 
KRBL - Red Bluff, California, USA
Distance from station: WNW 155mi, 249km
Updated: Thu, 21-Nov-2019 2:54pm PST
Clear
Clear
 Wind from S
Wind: S 7 mph , 11 km/h
Temperature: 64°F , 18°C
Dew Point: 30°F , -1°C
Humidity: 28%
Barometer: 29.89 inHg , 1012.2 hPa
Clouds: Clear
Visibility: 10 miles , 16 km
2019/11/21 22:54 KRBL 212254Z AUTO 19006KT 10SM CLR 18/M01 A2989 RMK AO2 SLP119 T01831011
KFAT - Fresno, California, USA
Distance from station: S 156mi, 251km
Updated: Thu, 21-Nov-2019 2:53pm PST
Few Clouds
Few Clouds
 Wind from SSW
Wind: SSW 8 mph , 13 km/h
Temperature: 66°F , 19°C
Dew Point: 39°F , 4°C
Humidity: 37%
Barometer: 29.90 inHg , 1012.5 hPa
Clouds: Few Clouds
Visibility: 10 miles , 16 km
Cloud details: Few Clouds 6000 ft
2019/11/21 22:53 KFAT 212253Z 20007KT 10SM FEW060 19/04 A2990 RMK AO2 SLP124 CLDS TPG MTNS DSNT E T01890039
 
KTPH - Tonopah, Nevada, USA
Distance from station: ESE 158mi, 254km
Updated: Thu, 21-Nov-2019 3:43pm PST
Light rain, Overcast
Light rain, Overcast
 Wind from SE
Wind: SE 6 mph , 9 km/h
Temperature: 37°F , 3°C
Wind Chill: 32°F , 0°C
Dew Point: 36°F , 2°C
Humidity: 93%
Barometer: 29.93 inHg , 1013.5 hPa
Summary: Light rain
Clouds: Overcast
Visibility: 10 miles , 16 km
Cloud details: Mostly cloudy 3000 ft
Overcast 3500 ft
2019/11/21 23:43 KTPH 212343Z AUTO 13005KT 10SM -RA BKN030 OVC035 03/02 A2993 RMK AO2 P0001 T00330017
KFCH - Fresno Chandler, California, USA
Distance from station: S 161mi, 258km
Updated: Fri, 08-Nov-2019 7:15pm PST
NOT Current
Clear
Clear
 Wind from WNW
Wind: WNW 3 mph , 6 km/h
Temperature: 63°F , 17°C
Dew Point: 48°F , 9°C
Humidity: 59%
Barometer: 30.14 inHg , 1020.7 hPa
Clouds: Clear
Visibility: 10 miles , 16 km
2019/11/09 03:15 KFCH 090315Z AUTO 29003KT 10SM CLR 17/09 A3014 RMK A01
 
KHWD - Hayward, California, USA
Distance from station: SW 161mi, 259km
Updated: Thu, 21-Nov-2019 2:54pm PST
Clear
Clear
 Wind from W
Wind: W 5 mph , 7 km/h
Temperature: 63°F , 17°C
Dew Point: 45°F , 7°C
Humidity: 52%
Barometer: 29.89 inHg , 1012.2 hPa
Clouds: Clear
Visibility: 10 miles , 16 km
2019/11/21 22:54 KHWD 212254Z 27004KT 10SM CLR 17/07 A2989 RMK AO2 SLP132 T01720067
KOAK - Oakland, California, USA
Distance from station: SW 164mi, 264km
Updated: Thu, 21-Nov-2019 2:53pm PST
Few Clouds
Few Clouds
 Wind from SW
Wind: SW 3 mph , 6 km/h
Temperature: 63°F , 17°C
Dew Point: 43°F , 6°C
Humidity: 49%
Barometer: 29.90 inHg , 1012.5 hPa
Clouds: Few Clouds
Visibility: 10 miles , 16 km
Cloud details: Few Clouds 1500 ft
2019/11/21 22:53 KOAK 212253Z 23003KT 10SM FEW015 17/06 A2990 RMK AO2 SLP123 T01670061
 
KWMC - Winnemucca, Nevada, USA
Distance from station: NE 164mi, 264km
Updated: Thu, 21-Nov-2019 2:56pm PST
Overcast
Overcast
 Wind from calm
Wind: Calm
Temperature: 46°F , 8°C
Dew Point: 21°F , -6°C
Humidity: 37%
Barometer: 29.92 inHg , 1013.2 hPa
Clouds: Overcast
Visibility: 10 miles , 16 km
Cloud details: Overcast 6500 ft
2019/11/21 22:56 KWMC 212256Z AUTO 00000KT 10SM OVC065 08/M06 A2992 RMK AO2 SLP127 T00831061
KDVO - Novato/Gnoss Fld, California, USA
Distance from station: WSW 165mi, 265km
Updated: Thu, 21-Nov-2019 3:35pm PST
Clear
Clear
 Wind from SE
Wind: SE 8 mph , 13 km/h
Temperature: 63°F , 17°C
Dew Point: 45°F , 7°C
Humidity: 52%
Barometer: 29.90 inHg , 1012.5 hPa
Clouds: Clear
Visibility: 10 miles , 16 km
2019/11/21 23:35 KDVO 212335Z AUTO 14007KT 10SM CLR 17/07 A2990 RMK AO2
 
KO69 - Petaluma, California, USA
Distance from station: WSW 165mi, 265km
Updated: Thu, 21-Nov-2019 3:35pm PST
Clear
Clear
 Wind from SSE
Wind: SSE 7 mph , 11 km/h
Temperature: 63°F , 17°C
Dew Point: 45°F , 7°C
Humidity: 52%
Barometer: 29.90 inHg , 1012.5 hPa
Clouds: Clear
Visibility: 10 miles , 16 km
2019/11/21 23:35 KO69 212335Z AUTO 15006KT 10SM CLR 17/07 A2990 RMK A01
KRHV - San Jose/Reid, California, USA
Distance from station: SW 165mi, 265km
Updated: Thu, 21-Nov-2019 3:47pm PST
Clear
Clear
 Wind from calm
Wind: Calm
Temperature: 64°F , 18°C
Dew Point: 45°F , 7°C
Humidity: 49%
Barometer: 29.89 inHg , 1012.2 hPa
Clouds: Clear
Visibility: 10 miles , 16 km
2019/11/21 23:47 KRHV 212347Z 00000KT 10SM SKC 18/07 A2989
 
KSJC - San Jose, California, USA
Distance from station: SW 166mi, 267km
Updated: Thu, 21-Nov-2019 2:53pm PST
Few Clouds
Few Clouds
 Wind from NW
Wind: NW 8 mph , 13 km/h
Temperature: 66°F , 19°C
Dew Point: 45°F , 7°C
Humidity: 46%
Barometer: 29.88 inHg , 1011.9 hPa
Clouds: Few Clouds
Visibility: 10 miles , 16 km
Cloud details: Few Clouds 3200 ft
Few Clouds 5000 ft
2019/11/21 22:53 KSJC 212253Z 32007KT 10SM FEW032 FEW050 19/07 A2988 RMK AO2 SLP119 T01890067
KE16 - San Martin, California, USA
Distance from station: SW 169mi, 273km
Updated: Thu, 14-Nov-2019 1:35am PST
NOT Current
Overcast
Overcast
 Wind from SE
Wind: SE 7 mph , 11 km/h
Temperature: 54°F , 12°C
Dew Point: 50°F , 10°C
Humidity: 88%
Barometer: 30.05 inHg , 1017.6 hPa
Clouds: Overcast
Visibility: 10 miles , 16 km
Cloud details: Overcast 1400 ft
2019/11/14 09:35 KE16 140935Z AUTO 13006KT 10SM OVC014 12/10 A3005 RMK AO2
 
KPAO - Palo Alto, California, USA
Distance from station: SW 169mi, 273km
Updated: Thu, 21-Nov-2019 2:47pm PST
Clear
Clear
 Wind from N
Wind: N 7 mph , 11 km/h
Temperature: 63°F , 17°C
Dew Point: 46°F , 8°C
Humidity: 56%
Barometer: 29.89 inHg , 1012.2 hPa
Clouds: Clear
Visibility: 10 miles , 16 km
2019/11/21 22:47 KPAO 212247Z 35006KT 10SM SKC 17/08 A2989
KNUQ - Moffett Nas/Mtn, California, USA
Distance from station: SW 170mi, 273km
Updated: Thu, 21-Nov-2019 8:56am PST
NOT Current

 
Barometer: 29.86 inHg , 1011.2 hPa
2019/11/21 16:56 KNUQ 211656Z AUTO A2986 RMK AO2 SLP116 PWINO $
 
KRDD - Redding, California, USA
Distance from station: NW 171mi, 275km
Updated: Thu, 21-Nov-2019 2:53pm PST
Clear
Clear
 Wind from SW
Wind: SW 5 mph , 7 km/h
Temperature: 66°F , 19°C
Dew Point: 28°F , -2°C
Humidity: 24%
Barometer: 29.86 inHg , 1011.2 hPa
Clouds: Clear
Visibility: 10 miles , 16 km
2019/11/21 22:53 KRDD 212253Z 22004KT 10SM CLR 19/M02 A2986 RMK AO2 SLP107 T01941017
KSTS - Santa Rosa, California, USA
Distance from station: WSW 171mi, 275km
Updated: Thu, 21-Nov-2019 2:53pm PST
Clear
Clear
 Wind from S
Wind: S 9 mph , 15 km/h
Temperature: 66°F , 19°C
Dew Point: 39°F , 4°C
Humidity: 37%
Barometer: 29.88 inHg , 1011.9 hPa
Clouds: Clear
Visibility: 10 miles , 16 km
2019/11/21 22:53 KSTS 212253Z 19008KT 10SM CLR 19/04 A2988 RMK AO2 SLP111 T01890039
 
KSQL - San Carlos Airpo, California, USA
Distance from station: SW 173mi, 278km
Updated: Thu, 21-Nov-2019 2:47pm PST
Few Clouds
Few Clouds
 Wind from ENE
Wind: ENE 7 mph , 11 km/h
Temperature: 61°F , 16°C
Dew Point: 48°F , 9°C
Humidity: 63%
Barometer: 29.90 inHg , 1012.5 hPa
Clouds: Few Clouds
Visibility: 10 miles , 16 km
Cloud details: Few Clouds 5000 ft
2019/11/21 22:47 KSQL 212247Z 06006KT 10SM FEW050 16/09 A2990
KCVH - Hollister Muni, California, USA
Distance from station: SSW 174mi, 280km
Updated: Thu, 21-Nov-2019 3:40pm PST
Clear
Clear
 Wind from W
Wind: W 9 mph , 15 km/h
Temperature: 63°F , 17°C
Dew Point: 46°F , 8°C
Humidity: 56%
Barometer: 29.91 inHg , 1012.9 hPa
Clouds: Clear
Visibility: 9 miles , 14 km
2019/11/21 23:40 KCVH 212340Z AUTO 28008KT 9SM CLR 17/08 A2991 RMK A01
 
KSFO - San Francisco, California, USA
Distance from station: SW 174mi, 280km
Updated: Thu, 21-Nov-2019 2:56pm PST
Few Clouds
Few Clouds
 Wind from NE
Wind: NE 6 mph , 9 km/h
Temperature: 61°F , 16°C
Dew Point: 48°F , 9°C
Humidity: 63%
Barometer: 29.89 inHg , 1012.2 hPa
Clouds: Few Clouds
Visibility: 10 miles , 16 km
Cloud details: Few Clouds 3000 ft
2019/11/21 22:56 KSFO 212256Z 05005KT 10SM FEW030 16/09 A2989 RMK AO2 SLP120 T01610094
KAAT - Alturas, California, USA
Distance from station: NNW 175mi, 281km
Updated: Thu, 21-Nov-2019 2:55pm PST
Clear
Clear
 Wind from calm
Wind: Calm
Temperature: 48°F , 9°C
Dew Point: 25°F , -4°C
Humidity: 40%
Barometer: 29.92 inHg , 1013.2 hPa
Clouds: Clear
Visibility: 10 miles , 16 km
2019/11/21 22:55 KAAT 212255Z AUTO 00000KT 10SM CLR 09/M04 A2992 RMK AO2 SLP131 T00941044
 
KBAM - Battle Mtn (vor), Nevada, USA
Distance from station: NE 182mi, 294km
Updated: Thu, 21-Nov-2019 3:35pm PST
Overcast
Overcast
 Wind from calm
Wind: Calm
Temperature: 41°F , 5°C
Dew Point: 32°F , 0°C
Humidity: 70%
Barometer: 29.95 inHg , 1014.2 hPa
Clouds: Overcast
Visibility: 10 miles , 16 km
Cloud details: Overcast 4200 ft
2019/11/21 23:35 KBAM 212335Z AUTO 00000KT 10SM OVC042 05/00 A2995 RMK AO1
KHAF - Half Moon Bay, California, USA
Distance from station: SW 184mi, 296km
Updated: Thu, 21-Nov-2019 3:40pm PST
Clear
Clear
 Wind from SE
Wind: SE 6 mph , 9 km/h
Temperature: 57°F , 14°C
Dew Point: 50°F , 10°C
Humidity: 77%
Barometer: 29.92 inHg , 1013.2 hPa
Clouds: Clear
Visibility: 7 miles , 11 km
2019/11/21 23:40 KHAF 212340Z AUTO 14005KT 7SM CLR 14/10 A2992 RMK AO2
 
KWVI - Watsonville, California, USA
Distance from station: SW 184mi, 296km
Updated: Thu, 21-Nov-2019 3:48pm PST
Mostly cloudy
Mostly cloudy
 Wind from SW
Wind: SW 6 mph , 9 km/h
Temperature: 61°F , 16°C
Dew Point: 48°F , 9°C
Humidity: 63%
Barometer: 29.92 inHg , 1013.2 hPa
Clouds: Mostly cloudy
Visibility: 10 miles , 16 km
Cloud details: Mostly cloudy 2400 ft
2019/11/21 23:48 KWVI 212348Z AUTO 22005KT 10SM BKN024 16/09 A2992 RMK AO2
KUKI - Ukiah, California, USA
Distance from station: W 187mi, 300km
Updated: Thu, 21-Nov-2019 2:56pm PST
Clear
Clear
 Wind from ENE
Wind: ENE 3 mph , 6 km/h
Temperature: 68°F , 20°C
Dew Point: 28°F , -2°C
Humidity: 23%
Barometer: 29.85 inHg , 1010.8 hPa
Clouds: Clear
Visibility: 10 miles , 16 km
2019/11/21 22:56 KUKI 212256Z AUTO 06003KT 10SM CLR 20/M02 A2985 RMK AO2 SLP106 T02001022
 
KHJO - Hanford, California, USA
Distance from station: S 188mi, 303km
Updated: Thu, 21-Nov-2019 2:53pm PST
Clear
Clear
 Wind from S
Wind: S 5 mph , 7 km/h
Temperature: 66°F , 19°C
Dew Point: 43°F , 6°C
Humidity: 43%
Barometer: 29.90 inHg , 1012.5 hPa
Clouds: Clear
Visibility: 10 miles , 16 km
2019/11/21 22:53 KHJO 212253Z AUTO 18004KT 10SM CLR 19/06 A2990 RMK AO2 SLP127 T01890061
KNLC - Lemoore Nas/Reev, California, USA
Distance from station: S 188mi, 303km
Updated: Thu, 21-Nov-2019 2:56pm PST
Few Clouds
Few Clouds
 Wind from S
Wind: S 7 mph , 11 km/h
Temperature: 66°F , 19°C
Dew Point: 43°F , 6°C
Humidity: 43%
Barometer: 29.89 inHg , 1012.2 hPa
Clouds: Few Clouds
Visibility: 10 miles , 16 km
Cloud details: Few Clouds 4500 ft
2019/11/21 22:56 KNLC 212256Z 18006KT 10SM FEW045 19/06 A2989 RMK AO2 SLP123 RH/41 T01940056
 
KVIS - Visalia Muni, California, USA
Distance from station: S 189mi, 304km
Updated: Thu, 21-Nov-2019 2:56pm PST
Clear
Clear
 Wind from S
Wind: S 3 mph , 6 km/h
Temperature: 66°F , 19°C
Dew Point: 45°F , 7°C
Humidity: 46%
Barometer: 29.91 inHg , 1012.9 hPa
Clouds: Clear
Visibility: 10 miles , 16 km
2019/11/21 22:56 KVIS 212256Z AUTO 18003KT 10SM CLR 19/07 A2991 RMK AO2 SLP135 T01890067
KSNS - Salinas, California, USA
Distance from station: SSW 193mi, 311km
Updated: Thu, 21-Nov-2019 2:53pm PST
Clear
Clear
 Wind from NW
Wind: NW 12 mph , 19 km/h
Temperature: 63°F , 17°C
Dew Point: 50°F , 10°C
Humidity: 64%
Barometer: 29.89 inHg , 1012.2 hPa
Clouds: Clear
Visibility: 8 miles , 13 km
2019/11/21 22:53 KSNS 212253Z 32010KT 8SM CLR 17/10 A2989 RMK AO2 SLP131 T01670100
 
K05U - Eureka, Nevada, USA
Distance from station: ENE 203mi, 326km
Updated: Thu, 21-Nov-2019 3:05pm PST
Overcast
Overcast
 Wind from calm
Wind: Calm
Temperature: 34°F , 1°C
Dew Point: 32°F , 0°C
Humidity: 93%
Barometer: 29.94 inHg , 1013.9 hPa
Clouds: Overcast
Visibility: 7 miles , 11 km
Cloud details: Overcast 600 ft
2019/11/21 23:05 K05U 212305Z AUTO 00000KT 7SM OVC006 01/M00 A2994 RMK A01
KP68 - Eureka, Nevada, USA
Distance from station: ENE 203mi, 326km
Updated: Thu, 21-Nov-2019 2:53pm PST

 Wind from N
Wind: N 5 mph , 7 km/h
Temperature: 34°F , 1°C
Wind Chill: 29°F , -2°C
Dew Point: 30°F , -1°C
Humidity: 87%
Barometer: 29.91 inHg , 1012.9 hPa
2019/11/21 22:53 KP68 212253Z AUTO 36004KT 01/M01 A2991 RMK AO1 SLP124 T00111006 $
 
KMRY - Monterey, California, USA
Distance from station: SW 206mi, 331km
Updated: Thu, 21-Nov-2019 2:54pm PST
Clear
Clear
 Wind from WSW
Wind: WSW 12 mph , 19 km/h
Temperature: 61°F , 16°C
Dew Point: 50°F , 10°C
Humidity: 68%
Barometer: 29.90 inHg , 1012.5 hPa
Clouds: Clear
Visibility: 9 miles , 14 km
2019/11/21 22:54 KMRY 212254Z 24010KT 9SM CLR 16/10 A2990 RMK AO2 SLP136 T01610100
KO54 - Weaverville, California, USA
Distance from station: NW 207mi, 332km
Updated: Thu, 21-Nov-2019 3:35pm PST
Clear
Clear
 Wind from SSW
Wind: SSW 5 mph , 7 km/h
Temperature: 59°F , 15°C
Dew Point: 25°F , -4°C
Humidity: 27%
Barometer: 29.89 inHg , 1012.2 hPa
Clouds: Clear
Visibility: 10 miles , 16 km
2019/11/21 23:35 KO54 212335Z AUTO 20004KT 10SM CLR 15/M04 A2989 RMK AO1
 
KO86 - Trinity Center, California, USA
Distance from station: NW 207mi, 333km
Updated: Thu, 21-Nov-2019 3:35pm PST
Clear
Clear
 Wind from S
Wind: S 5 mph , 7 km/h
Temperature: 59°F , 15°C
Dew Point: 27°F , -3°C
Humidity: 29%
Barometer: 29.89 inHg , 1012.2 hPa
Clouds: Clear
Visibility: 10 miles , 16 km
2019/11/21 23:35 KO86 212335Z AUTO 18004KT 10SM CLR 15/M03 A2989 RMK AO1
KMHS - Mount Shasta, California, USA
Distance from station: NW 209mi, 336km
Updated: Thu, 21-Nov-2019 2:56pm PST
Clear
Clear
 Wind from varies
Wind: varies 5 mph , 7 km/h
Temperature: 48°F , 9°C
Wind Chill: 46°F , 8°C
Dew Point: 27°F , -3°C
Humidity: 43%
Barometer: 29.91 inHg , 1012.9 hPa
Clouds: Clear
Visibility: 10 miles , 16 km
2019/11/21 22:56 KMHS 212256Z AUTO VRB04KT 10SM CLR 09/M03 A2991 RMK AO2 SLP155 T00941028
 
KPTV - Porterville, California, USA
Distance from station: S 212mi, 341km
Updated: Thu, 21-Nov-2019 2:56pm PST

 Wind from W
Wind: W 5 mph , 7 km/h
Temperature: 66°F , 19°C
Dew Point: 41°F , 5°C
Humidity: 40%
Barometer: 29.91 inHg , 1012.9 hPa
Visibility: 10 miles , 16 km
2019/11/21 22:56 KPTV 212256Z AUTO 28004KT 10SM 19/05 A2991 RMK AO2 SLP127 T01890050 $
KLKV - Lakeview, Oregon, USA
Distance from station: N 219mi, 353km
Updated: Thu, 21-Nov-2019 2:53pm PST
Clear
Clear
 Wind from WNW
Wind: WNW 5 mph , 7 km/h
Temperature: 48°F , 9°C
Wind Chill: 46°F , 8°C
Dew Point: 25°F , -4°C
Humidity: 40%
Barometer: 29.94 inHg , 1013.9 hPa
Clouds: Clear
Visibility: 10 miles , 16 km
2019/11/21 22:53 KLKV 212253Z AUTO 30004KT 10SM CLR 09/M04 A2994 RMK AO2 SLP155 T00891044
 
KSIY - Montague/Siskiyo, California, USA
Distance from station: NW 237mi, 382km
Updated: Thu, 21-Nov-2019 2:53pm PST
Clear
Clear
 Wind from SSE
Wind: SSE 3 mph , 6 km/h
Temperature: 52°F , 11°C
Dew Point: 27°F , -3°C
Humidity: 38%
Barometer: 29.95 inHg , 1014.2 hPa
Clouds: Clear
Visibility: 10 miles , 16 km
2019/11/21 22:53 KSIY 212253Z AUTO 16003KT 10SM CLR 11/M03 A2995 RMK AO2 SLP154 T01111033
KPRB - Paso Robles, California, USA
Distance from station: SSW 238mi, 383km
Updated: Thu, 21-Nov-2019 2:53pm PST
Clear
Clear
 Wind from WSW
Wind: WSW 9 mph , 15 km/h
Temperature: 63°F , 17°C
Dew Point: 45°F , 7°C
Humidity: 52%
Barometer: 29.89 inHg , 1012.2 hPa
Clouds: Clear
Visibility: 10 miles , 16 km
2019/11/21 22:53 KPRB 212253Z AUTO 24008KT 10SM CLR 17/07 A2989 RMK AO2 SLP121 T01720072 $
 
KLMT - Klamath Falls, Oregon, USA
Distance from station: NNW 239mi, 385km
Updated: Thu, 21-Nov-2019 2:53pm PST
Clear
Clear
 Wind from NNW
Wind: NNW 8 mph , 13 km/h
Temperature: 48°F , 9°C
Wind Chill: 44°F , 7°C
Dew Point: 27°F , -3°C
Humidity: 43%
Barometer: 29.93 inHg , 1013.5 hPa
Clouds: Clear
Visibility: 10 miles , 16 km
2019/11/21 22:53 KLMT 212253Z 34007KT 10SM CLR 09/M03 A2993 RMK AO2 SLP141 T00891033
KEKO - Elko, Nevada, USA
Distance from station: ENE 242mi, 390km
Updated: Thu, 21-Nov-2019 2:56pm PST
Overcast
Overcast
 Wind from NE
Wind: NE 7 mph , 11 km/h
Temperature: 39°F , 4°C
Wind Chill: 34°F , 1°C
Dew Point: 30°F , -1°C
Humidity: 70%
Barometer: 29.93 inHg , 1013.5 hPa
Clouds: Overcast
Visibility: 10 miles , 16 km
Cloud details: Overcast 2500 ft
2019/11/21 22:56 KEKO 212256Z AUTO 04006KT 10SM OVC025 04/M01 A2993 RMK AO2 SLP143 T00441011
 
KBFL - Bakersfield, California, USA
Distance from station: S 252mi, 405km
Updated: Thu, 21-Nov-2019 2:54pm PST
Clear
Clear
 Wind from calm
Wind: Calm
Temperature: 66°F , 19°C
Dew Point: 39°F , 4°C
Humidity: 37%
Barometer: 29.89 inHg , 1012.2 hPa
Clouds: Clear
Visibility: 10 miles , 16 km
2019/11/21 22:54 KBFL 212254Z 00000KT 10SM CLR 19/04 A2989 RMK AO2 SLP120 T01890044
KFOT - Fortuna, California, USA
Distance from station: WNW 256mi, 413km
Updated: Thu, 21-Nov-2019 3:35pm PST
Clear
Clear
 Wind from WNW
Wind: WNW 8 mph , 13 km/h
Temperature: 57°F , 14°C
Dew Point: 46°F , 8°C
Humidity: 67%
Barometer: 29.90 inHg , 1012.5 hPa
Clouds: Clear
Visibility: 10 miles , 16 km
2019/11/21 23:35 KFOT 212335Z AUTO 29007KT 10SM CLR 14/08 A2990 RMK AO1
 
KNID - China Lake (naf), California, USA
Distance from station: SSE 259mi, 417km
Updated: Thu, 21-Nov-2019 2:56pm PST
Mostly cloudy
Mostly cloudy
 Wind from calm
Wind: Calm
Temperature: 55°F , 13°C
Dew Point: 36°F , 2°C
Humidity: 47%
Barometer: 29.91 inHg , 1012.9 hPa
Clouds: Mostly cloudy
Visibility: 10 miles , 16 km
Cloud details: Few Clouds 5000 ft
Mostly cloudy 7000 ft
2019/11/21 22:56 KNID 212256Z 00000KT 10SM FEW050 BKN070 13/02 A2991 RMK AO2 SLP134 T01330017 $
KDRA - Desert R/Mercury, Nevada, USA
Distance from station: SE 262mi, 421km
Updated: Thu, 21-Nov-2019 2:53pm PST
Few Clouds
Few Clouds
 Wind from WSW
Wind: WSW 6 mph , 9 km/h
Temperature: 48°F , 9°C
Wind Chill: 45°F , 7°C
Dew Point: 37°F , 3°C
Humidity: 66%
Barometer: 29.91 inHg , 1012.9 hPa
Clouds: Few Clouds
Visibility: 10 miles , 16 km
Cloud details: Few Clouds 2300 ft
Few Clouds 7000 ft
2019/11/21 22:53 KDRA 212253Z AUTO 24005KT 10SM FEW023 FEW070 09/03 A2991 RMK AO2 SLP115 T00940033
 
KELY - Ely, Nevada, USA
Distance from station: E 262mi, 421km
Updated: Thu, 21-Nov-2019 2:53pm PST
Overcast
Overcast
 Wind from NNE
Wind: NNE 3 mph , 6 km/h
Temperature: 34°F , 1°C
Dew Point: 30°F , -1°C
Humidity: 87%
Barometer: 29.91 inHg , 1012.9 hPa
Clouds: Overcast
Visibility: 10 miles , 16 km
Cloud details: Mostly cloudy 500 ft
Overcast 7000 ft
2019/11/21 22:53 KELY 212253Z AUTO 02003KT 10SM BKN005 OVC070 01/M01 A2991 RMK AO2 SLP125 T00111006
KREO - Rome, Oregon, USA
Distance from station: NNE 263mi, 424km
Updated: Thu, 21-Nov-2019 2:52pm PST

 Wind from NNE
Wind: NNE 6 mph , 9 km/h
Temperature: 48°F , 9°C
Wind Chill: 45°F , 7°C
Dew Point: 21°F , -6°C
Humidity: 34%
Barometer: 29.95 inHg , 1014.2 hPa
2019/11/21 22:52 KREO 212252Z AUTO 02005KT 09/M06 A2995 RMK AO1 SLP154 T00941056
 
KACV - Arcata/Eureka, California, USA
Distance from station: WNW 268mi, 431km
Updated: Thu, 21-Nov-2019 2:53pm PST
Clear
Clear
 Wind from SW
Wind: SW 7 mph , 11 km/h
Temperature: 59°F , 15°C
Dew Point: 39°F , 4°C
Humidity: 48%
Barometer: 29.90 inHg , 1012.5 hPa
Clouds: Clear
Visibility: 10 miles , 16 km
2019/11/21 22:53 KACV 212253Z AUTO 22006KT 10SM CLR 15/04 A2990 RMK AO2 SLP131 T01500044
KSBP - San Luis Obispo, California, USA
Distance from station: S 268mi, 431km
Updated: Thu, 21-Nov-2019 2:56pm PST
Clear
Clear
 Wind from SW
Wind: SW 10 mph , 17 km/h
Temperature: 63°F , 17°C
Dew Point: 46°F , 8°C
Humidity: 56%
Barometer: 29.91 inHg , 1012.9 hPa
Clouds: Clear
Visibility: 10 miles , 16 km
2019/11/21 22:56 KSBP 212256Z 23009KT 10SM CLR 17/08 A2991 RMK AO2 SLP128 T01670078
 
KINS - Indian Springs, Nevada, USA
Distance from station: SE 279mi, 449km
Updated: Thu, 21-Nov-2019 2:58pm PST
Clear
Clear
 Wind from calm
Wind: Calm
Temperature: 50°F , 10°C
Dew Point: 36°F , 2°C
Humidity: 58%
Barometer: 29.90 inHg , 1012.5 hPa
Clouds: Clear
Visibility: 10 miles , 16 km
2019/11/21 22:58 KINS 212258Z AUTO 00000KT 10SM CLR 10/02 A2990 RMK AO2 SLP113 T01030024 $
KTSP - Tehachapi, California, USA
Distance from station: SSE 279mi, 449km
Updated: Thu, 21-Nov-2019 3:35pm PST
Overcast
Overcast
 Wind from ESE
Wind: ESE 6 mph , 9 km/h
Temperature: 48°F , 9°C
Wind Chill: 45°F , 7°C
Dew Point: 36°F , 2°C
Humidity: 62%
Barometer: 29.94 inHg , 1013.9 hPa
Clouds: Overcast
Visibility: 10 miles , 16 km
Cloud details: Overcast 6000 ft
2019/11/21 23:35 KTSP 212335Z AUTO 12005KT 10SM OVC060 09/02 A2994 RMK AO2
 
KMFR - Medford, Oregon, USA
Distance from station: NW 284mi, 457km
Updated: Thu, 21-Nov-2019 2:53pm PST
Clear
Clear
 Wind from calm
Wind: Calm
Temperature: 59°F , 15°C
Dew Point: 28°F , -2°C
Humidity: 31%
Barometer: 29.90 inHg , 1012.5 hPa
Clouds: Clear
Visibility: 10 miles , 16 km
2019/11/21 22:53 KMFR 212253Z 00000KT 10SM CLR 15/M02 A2990 RMK AO2 SLP128 T01501017
KMHV - Mojave, California, USA
Distance from station: SSE 288mi, 463km
Updated: Thu, 21-Nov-2019 3:20pm PST
Partly cloudy
Partly cloudy
 Wind from calm
Wind: Calm
Temperature: 55°F , 13°C
Dew Point: 32°F , 0°C
Humidity: 41%
Barometer: 29.93 inHg , 1013.5 hPa
Clouds: Partly cloudy
Visibility: 10 miles , 16 km
Cloud details: Partly cloudy 6000 ft
2019/11/21 23:20 KMHV 212320Z AUTO 00000KT 10SM SCT060 13/00 A2993 RMK A01
 
KSMX - Santa Maria, California, USA
Distance from station: S 289mi, 465km
Updated: Thu, 21-Nov-2019 3:51pm PST
Partly cloudy
Partly cloudy
 Wind from W
Wind: W 10 mph , 17 km/h
Temperature: 63°F , 17°C
Dew Point: 46°F , 8°C
Humidity: 56%
Barometer: 29.93 inHg , 1013.5 hPa
Clouds: Partly cloudy
Visibility: 9 miles , 14 km
Cloud details: Partly cloudy 4100 ft
2019/11/21 23:51 KSMX 212351Z 26009KT 9SM SCT041 17/08 A2993 RMK AO2 SLP137 T01670083 101
K9L2 - Edwards N-Aux, California, USA
Distance from station: SSE 299mi, 482km
Updated: Thu, 21-Nov-2019 2:58pm PST
Clear
Clear
 Wind from calm
Wind: Calm
Temperature: 55°F , 13°C
Dew Point: 32°F , 0°C
Humidity: 41%
Barometer: 29.91 inHg , 1012.9 hPa
Clouds: Clear
Visibility: 9 miles , 14 km
2019/11/21 22:58 K9L2 212258Z AUTO 00000KT 9SM CLR 13/00 A2991 RMK AO2 SLP130 T01330004 $
Honor Flight NV - Honoring all of our Veterans CoCoRaHS (Community Collaborative Rain, Hail and Snow Network) Station Number: NV-DG-2 Live Lightning Map - USA Reno Skywarn Spotter ID: DO21 AlertID Southwestern Weather Network Carson Valley Community Food Closet - providing for the needs of our community